createdAt,value
2023-04-10T00:00:18.815Z,99978.59
2023-04-10T00:02:48.657Z,99976.67
2023-04-10T00:05:17.831Z,99977.94
2023-04-10T00:07:46.072Z,99978.48
2023-04-10T00:10:14.248Z,99977.62
2023-04-10T00:12:48.180Z,99975.52
2023-04-10T00:15:16.304Z,99981.44
2023-04-10T00:17:46.671Z,99981.48
2023-04-10T00:20:14.794Z,99977.48
2023-04-10T00:22:44.120Z,99975.20
2023-04-10T00:25:12.158Z,99977.62
2023-04-10T00:27:41.459Z,99978.82
2023-04-10T00:30:09.748Z,99978.30
2023-04-10T00:32:46.733Z,99980.45
2023-04-10T00:35:18.261Z,99977.89
2023-04-10T00:37:47.251Z,99980.02
2023-04-10T00:40:15.496Z,99976.04
2023-04-10T00:42:44.004Z,99978.66
2023-04-10T00:45:12.113Z,99976.77
2023-04-10T00:47:41.601Z,99980.32
2023-04-10T00:50:10.460Z,99974.54
2023-04-10T00:52:38.564Z,99972.92
2023-04-10T00:55:07.976Z,99972.65
2023-04-10T00:57:36.072Z,99977.02
2023-04-10T01:00:05.757Z,99976.25
2023-04-10T01:02:36.939Z,99971.75
2023-04-10T01:05:06.304Z,99973.83
2023-04-10T01:07:52.693Z,99972.06
2023-04-10T01:10:30.719Z,99971.95
2023-04-10T01:13:20.708Z,99973.65
2023-04-10T01:16:22.954Z,99972.09
2023-04-10T01:18:55.479Z,99968.98
2023-04-10T01:21:24.149Z,99966.70
2023-04-10T01:24:10.920Z,99968.55
2023-04-10T01:27:11.337Z,99966.40
2023-04-10T01:29:44.701Z,99968.91
2023-04-10T01:32:18.616Z,99967.25
2023-04-10T01:34:51.432Z,99964.60
2023-04-10T01:37:27.213Z,99966.66
2023-04-10T01:40:01.141Z,99967.60
2023-04-10T01:42:35.585Z,99966.92
2023-04-10T01:45:04.909Z,99967.13
2023-04-10T01:47:33.101Z,99967.00
2023-04-10T01:50:02.093Z,99965.70
2023-04-10T01:52:31.056Z,99967.66
2023-04-10T01:55:08.334Z,99967.57
2023-04-10T01:57:46.650Z,99970.24
2023-04-10T02:00:20.475Z,99971.45
2023-04-10T02:02:49.706Z,99971.50
2023-04-10T02:05:18.191Z,99977.96
2023-04-10T02:08:12.802Z,99972.23
2023-04-10T02:10:43.907Z,99977.50
2023-04-10T02:13:12.410Z,99976.98
2023-04-10T02:15:42.873Z,99974.40
2023-04-10T02:18:11.532Z,99976.16
2023-04-10T02:20:39.568Z,99969.13
2023-04-10T02:23:10.015Z,99970.59
2023-04-10T02:25:39.093Z,99969.02
2023-04-10T02:28:08.019Z,99971.70
2023-04-10T02:30:39.833Z,99975.91
2023-04-10T02:33:08.778Z,99980.83
2023-04-10T02:35:37.783Z,99980.73
2023-04-10T02:38:05.996Z,99979.02
2023-04-10T02:40:37.226Z,99978.98
2023-04-10T02:43:13.461Z,99979.56
2023-04-10T02:45:42.720Z,99982.20
2023-04-10T02:48:13.305Z,99982.95
2023-04-10T02:50:46.374Z,99982.94
2023-04-10T02:53:16.211Z,99982.27
2023-04-10T02:55:45.815Z,99984.58
2023-04-10T02:58:15.164Z,99986.73
2023-04-10T03:00:51.117Z,99988.91
2023-04-10T03:03:29.458Z,99985.50
2023-04-10T03:05:58.081Z,99986.08
2023-04-10T03:08:31.267Z,99983.98
2023-04-10T03:10:59.441Z,99984.26
2023-04-10T03:13:28.146Z,99983.04
2023-04-10T03:15:56.285Z,99983.39
2023-04-10T03:18:24.322Z,99986.85
2023-04-10T03:20:56.640Z,99987.54
2023-04-10T03:23:24.906Z,99988.36
2023-04-10T03:25:56.363Z,99988.48
2023-04-10T03:28:27.951Z,99986.31
2023-04-10T03:30:55.987Z,99988.52
2023-04-10T03:33:25.019Z,99986.09
2023-04-10T03:35:57.421Z,99990.95
2023-04-10T03:38:25.759Z,99991.95
2023-04-10T03:40:54.151Z,99994.40
2023-04-10T03:43:25.014Z,99993.16
2023-04-10T03:45:53.110Z,99992.63
2023-04-10T03:48:22.042Z,99993.48
2023-04-10T03:50:50.273Z,99993.42
2023-04-10T03:53:18.632Z,99996.70
2023-04-10T03:55:47.091Z,100000.02
2023-04-10T03:58:15.373Z,100000.40
2023-04-10T04:00:44.442Z,100002.30
2023-04-10T04:03:22.956Z,100003.89
2023-04-10T04:05:59.176Z,100007.23
2023-04-10T04:08:36.486Z,100006.30
2023-04-10T04:11:15.866Z,100009.55
2023-04-10T04:14:06.557Z,100010.35
2023-04-10T04:16:47.763Z,100012.13
2023-04-10T04:19:27.950Z,100013.37
2023-04-10T04:22:23.109Z,100014.10
2023-04-10T04:25:11.017Z,100015.86
2023-04-10T04:27:59.296Z,100016.23
2023-04-10T04:30:46.752Z,100014.16
2023-04-10T04:33:38.011Z,100018.37
2023-04-10T04:36:25.835Z,100020.13
2023-04-10T04:39:06.158Z,100025.16
2023-04-10T04:41:54.461Z,100022.00
2023-04-10T04:44:42.191Z,100023.77
2023-04-10T04:47:19.706Z,100031.50
2023-04-10T04:50:10.012Z,100032.85
2023-04-10T04:53:01.330Z,100030.84
2023-04-10T04:56:02.788Z,100031.97
2023-04-10T04:59:00.043Z,100033.90
2023-04-10T05:01:46.859Z,100034.59
2023-04-10T05:04:35.177Z,100039.27
2023-04-10T05:07:18.039Z,100043.19
2023-04-10T05:09:52.330Z,100043.67
2023-04-10T05:12:21.510Z,100044.55
2023-04-10T05:15:01.803Z,100049.25
2023-04-10T05:17:41.865Z,100048.33
2023-04-10T05:20:36.193Z,100049.92
2023-04-10T05:23:26.267Z,100052.22
2023-04-10T05:26:14.699Z,100056.00
2023-04-10T05:28:56.941Z,100058.66
2023-04-10T05:31:34.781Z,100057.98
2023-04-10T05:34:23.236Z,100056.38
2023-04-10T05:37:11.662Z,100057.73
2023-04-10T05:40:00.279Z,100058.61
2023-04-10T05:42:29.612Z,100059.27
2023-04-10T05:45:33.076Z,100062.30
2023-04-10T05:48:26.164Z,100061.98
2023-04-10T05:51:20.397Z,100063.52
2023-04-10T05:54:17.353Z,100067.02
2023-04-10T05:56:50.538Z,100068.93
2023-04-10T05:59:22.089Z,100064.70
2023-04-10T06:02:17.292Z,100066.10
2023-04-10T06:04:46.734Z,100066.97
2023-04-10T06:07:17.883Z,100071.16
2023-04-10T06:09:47.000Z,100074.67
2023-04-10T06:12:16.368Z,100078.38
2023-04-10T06:14:47.752Z,100077.20
2023-04-10T06:17:21.737Z,100079.14
2023-04-10T06:19:50.013Z,100076.48
2023-04-10T06:22:22.695Z,100082.96
2023-04-10T06:24:52.834Z,100084.05
2023-04-10T06:27:20.949Z,100084.23
2023-04-10T06:29:52.032Z,100083.81
2023-04-10T06:32:23.133Z,100084.97
2023-04-10T06:34:51.801Z,100083.36
2023-04-10T06:37:28.491Z,100082.11
2023-04-10T06:40:10.511Z,100082.05
2023-04-10T06:42:38.912Z,100082.65
2023-04-10T06:45:23.803Z,100083.92
2023-04-10T06:47:52.512Z,100084.34
2023-04-10T06:50:23.391Z,100081.20
2023-04-10T06:52:53.386Z,100084.55
2023-04-10T06:55:21.942Z,100083.07
2023-04-10T06:58:10.004Z,100087.00
2023-04-10T07:00:38.797Z,100086.30
2023-04-10T07:03:08.171Z,100087.55
2023-04-10T07:05:36.457Z,100089.92
2023-04-10T07:08:04.535Z,100090.63
2023-04-10T07:10:34.488Z,100095.02
2023-04-10T07:13:03.063Z,100092.24
2023-04-10T07:15:41.688Z,100095.41
2023-04-10T07:18:10.395Z,100097.55
2023-04-10T07:20:38.499Z,100095.12
2023-04-10T07:23:11.885Z,100100.35
2023-04-10T07:25:42.470Z,100099.02
2023-04-10T07:28:10.706Z,100099.97
2023-04-10T07:30:42.884Z,100098.52
2023-04-10T07:33:11.296Z,100098.95
2023-04-10T07:35:39.653Z,100099.46
2023-04-10T07:38:08.271Z,100100.77
2023-04-10T07:40:36.542Z,100100.38
2023-04-10T07:43:04.658Z,100105.34
2023-04-10T07:45:33.221Z,100105.19
2023-04-10T07:48:02.807Z,100105.95
2023-04-10T07:50:34.252Z,100113.65
2023-04-10T07:53:07.779Z,100116.10
2023-04-10T07:55:39.548Z,100115.27
2023-04-10T07:58:12.106Z,100116.55
2023-04-10T08:00:40.404Z,100114.68
2023-04-10T08:03:09.118Z,100114.96
2023-04-10T08:05:39.808Z,100116.45
2023-04-10T08:08:07.850Z,100117.52
2023-04-10T08:10:38.668Z,100115.63
2023-04-10T08:13:07.436Z,100115.55
2023-04-10T08:15:35.877Z,100117.50
2023-04-10T08:18:09.507Z,100121.17
2023-04-10T08:20:37.640Z,100120.82
2023-04-10T08:23:16.988Z,100121.77
2023-04-10T08:25:48.703Z,100124.62
2023-04-10T08:28:16.807Z,100127.27
2023-04-10T08:30:45.537Z,100123.80
2023-04-10T08:33:14.031Z,100121.08
2023-04-10T08:35:43.233Z,100123.27
2023-04-10T08:38:13.960Z,100121.45
2023-04-10T08:40:44.806Z,100123.17
2023-04-10T08:43:13.945Z,100119.61
2023-04-10T08:45:43.441Z,100120.86
2023-04-10T08:48:11.684Z,100120.48
2023-04-10T08:50:43.146Z,100120.13
2023-04-10T08:53:13.786Z,100121.65
2023-04-10T08:55:44.806Z,100120.45
2023-04-10T08:58:14.042Z,100119.89
2023-04-10T09:00:42.152Z,100121.98
2023-04-10T09:03:14.339Z,100123.98
2023-04-10T09:05:42.830Z,100120.86
2023-04-10T09:08:13.803Z,100113.88
2023-04-10T09:10:42.134Z,100117.46
2023-04-10T09:13:11.645Z,100118.41
2023-04-10T09:15:57.163Z,100121.34
2023-04-10T09:18:45.864Z,100118.54
2023-04-10T09:21:16.127Z,100122.13
2023-04-10T09:23:44.795Z,100124.14
2023-04-10T09:26:29.829Z,100122.38
2023-04-10T09:29:00.235Z,100124.44
2023-04-10T09:31:36.101Z,100120.84
2023-04-10T09:34:07.981Z,100122.91
2023-04-10T09:36:37.636Z,100122.27
2023-04-10T09:39:09.210Z,100123.52
2023-04-10T09:42:07.630Z,100122.33
2023-04-10T09:44:37.460Z,100118.66
2023-04-10T09:47:13.762Z,100119.90
2023-04-10T09:49:46.620Z,100120.40
2023-04-10T09:52:19.521Z,100120.09
2023-04-10T09:54:47.848Z,100118.13
2023-04-10T09:57:20.342Z,100116.46
2023-04-10T09:59:56.702Z,100111.27
2023-04-10T10:02:28.891Z,100107.05
2023-04-10T10:04:57.860Z,100107.70
2023-04-10T10:07:26.799Z,100108.00
2023-04-10T10:09:55.629Z,100108.20
2023-04-10T10:12:49.699Z,100109.73
2023-04-10T10:15:31.382Z,100104.64
2023-04-10T10:18:21.076Z,100104.81
2023-04-10T10:20:49.244Z,100106.56
2023-04-10T10:23:17.620Z,100104.15
2023-04-10T10:25:46.497Z,100106.72
2023-04-10T10:28:14.983Z,100102.95
2023-04-10T10:30:44.905Z,100101.48
2023-04-10T10:33:13.661Z,100102.23
2023-04-10T10:35:42.115Z,100097.90
2023-04-10T10:38:12.978Z,100098.14
2023-04-10T10:40:44.029Z,100097.69
2023-04-10T10:43:16.898Z,100092.47
2023-04-10T10:45:57.005Z,100094.30
2023-04-10T10:48:25.279Z,100091.95
2023-04-10T10:50:57.492Z,100091.14
2023-04-10T10:53:44.315Z,100090.02
2023-04-10T10:56:18.821Z,100095.44
2023-04-10T10:58:55.896Z,100095.09
2023-04-10T11:01:24.485Z,100094.35
2023-04-10T11:03:54.024Z,100095.07
2023-04-10T11:06:44.684Z,100096.56
2023-04-10T11:09:51.202Z,100097.29
2023-04-10T11:12:22.328Z,100098.02
2023-04-10T11:15:01.443Z,100093.57
2023-04-10T11:17:54.339Z,100099.34
2023-04-10T11:20:27.527Z,100098.52
2023-04-10T11:23:12.378Z,100093.58
2023-04-10T11:25:54.855Z,100094.21
2023-04-10T11:28:35.599Z,100090.83
2023-04-10T11:31:16.213Z,100089.91
2023-04-10T11:34:08.526Z,100090.27
2023-04-10T11:36:40.879Z,100084.80
2023-04-10T11:39:19.959Z,100082.84
2023-04-10T11:41:52.079Z,100082.73
2023-04-10T11:44:26.628Z,100081.94
2023-04-10T11:46:54.716Z,100083.53
2023-04-10T11:49:25.245Z,100077.67
2023-04-10T11:51:53.525Z,100076.80
2023-04-10T11:54:25.904Z,100076.95
2023-04-10T11:57:04.565Z,100072.19
2023-04-10T11:59:33.496Z,100073.00
2023-04-10T12:02:14.390Z,100073.94
2023-04-10T12:04:44.100Z,100070.66
2023-04-10T12:07:13.670Z,100075.27
2023-04-10T12:09:42.882Z,100075.44
2023-04-10T12:12:12.544Z,100075.09
2023-04-10T12:14:42.399Z,100071.16
2023-04-10T12:17:11.633Z,100068.46
2023-04-10T12:19:53.551Z,100064.48
2023-04-10T12:22:22.159Z,100065.14
2023-04-10T12:24:54.006Z,100061.70
2023-04-10T12:27:23.076Z,100059.39
2023-04-10T12:29:52.404Z,100058.16
2023-04-10T12:32:20.901Z,100055.13
2023-04-10T12:34:57.263Z,100046.02
2023-04-10T12:37:26.765Z,100042.95
2023-04-10T12:40:07.486Z,100036.58
2023-04-10T12:42:40.258Z,100032.27
2023-04-10T12:45:10.296Z,100031.14
2023-04-10T12:47:49.235Z,100028.51
2023-04-10T12:50:19.040Z,100031.79
2023-04-10T12:53:09.175Z,100027.58
2023-04-10T12:55:38.212Z,100024.41
2023-04-10T12:58:21.405Z,100020.36
2023-04-10T13:00:49.985Z,100032.45
2023-04-10T13:03:18.664Z,100043.27
2023-04-10T13:05:52.136Z,100051.20
2023-04-10T13:08:21.443Z,100069.67
2023-04-10T13:10:51.062Z,100079.08
2023-04-10T13:13:19.516Z,100081.53
2023-04-10T13:15:49.131Z,100091.11
2023-04-10T13:18:17.882Z,100095.55
2023-04-10T13:20:45.908Z,100082.17
2023-04-10T13:23:14.579Z,100072.05
2023-04-10T13:25:43.173Z,100064.86
2023-04-10T13:28:12.241Z,100065.59
2023-04-10T13:30:43.782Z,100067.15
2023-04-10T13:33:12.806Z,100069.41
2023-04-10T13:35:41.467Z,100058.70
2023-04-10T13:38:11.824Z,100038.31
2023-04-10T13:40:43.818Z,100024.34
2023-04-10T13:43:13.549Z,100015.59
2023-04-10T13:45:41.870Z,100015.23
2023-04-10T13:48:11.396Z,100011.85
2023-04-10T13:50:39.595Z,100006.90
2023-04-10T13:53:15.042Z,100004.96
2023-04-10T13:55:47.733Z,100000.89
2023-04-10T13:58:16.231Z,100006.15
2023-04-10T14:00:47.160Z,100003.45
2023-04-10T14:03:16.440Z,100001.30
2023-04-10T14:05:45.837Z,100001.16
2023-04-10T14:08:16.026Z,100004.66
2023-04-10T14:10:44.815Z,100001.60
2023-04-10T14:13:13.034Z,100003.31
2023-04-10T14:15:42.346Z,99999.10
2023-04-10T14:18:18.691Z,99995.05
2023-04-10T14:20:54.062Z,99992.70
2023-04-10T14:23:22.912Z,99991.10
2023-04-10T14:25:51.257Z,99993.59
2023-04-10T14:28:20.901Z,99992.42
2023-04-10T14:30:50.689Z,99988.38
2023-04-10T14:33:22.253Z,99993.85
2023-04-10T14:35:50.579Z,99992.55
2023-04-10T14:38:19.519Z,99991.98
2023-04-10T14:40:50.384Z,99992.05
2023-04-10T14:43:19.620Z,99986.95
2023-04-10T14:45:50.393Z,99982.54
2023-04-10T14:48:26.950Z,99980.90
2023-04-10T14:50:56.901Z,99980.02
2023-04-10T14:53:25.399Z,99976.33
2023-04-10T14:55:53.768Z,99972.60
2023-04-10T14:58:22.258Z,99967.31
2023-04-10T15:00:51.025Z,99964.30
2023-04-10T15:03:19.433Z,99959.66
2023-04-10T15:05:47.942Z,99962.41
2023-04-10T15:08:16.246Z,99963.13
2023-04-10T15:10:44.276Z,99959.63
2023-04-10T15:13:12.680Z,99961.05
2023-04-10T15:15:40.797Z,99961.32
2023-04-10T15:18:08.878Z,99956.95
2023-04-10T15:20:37.660Z,99954.16
2023-04-10T15:23:06.391Z,99952.15
2023-04-10T15:25:34.765Z,99951.21
2023-04-10T15:28:03.158Z,99947.61
2023-04-10T15:30:31.778Z,99949.54
2023-04-10T15:33:01.002Z,99947.09
2023-04-10T15:35:30.583Z,99945.55
2023-04-10T15:37:58.885Z,99943.21
2023-04-10T15:40:27.013Z,99938.34
2023-04-10T15:42:55.420Z,99936.86
2023-04-10T15:45:23.447Z,99931.54
2023-04-10T15:47:51.570Z,99928.06
2023-04-10T15:50:22.287Z,99928.63
2023-04-10T15:52:51.337Z,99930.09
2023-04-10T15:55:19.499Z,99929.41
2023-04-10T15:57:50.698Z,99927.17
2023-04-10T16:00:19.152Z,99925.98
2023-04-10T16:02:47.593Z,99924.98
2023-04-10T16:05:15.954Z,99919.98
2023-04-10T16:07:44.498Z,99915.29
2023-04-10T16:10:12.866Z,99921.60
2023-04-10T16:12:47.938Z,99918.49
2023-04-10T16:15:16.914Z,99921.45
2023-04-10T16:17:45.628Z,99914.29
2023-04-10T16:20:19.772Z,99913.23
2023-04-10T16:22:47.872Z,99913.23
2023-04-10T16:25:16.647Z,99912.38
2023-04-10T16:27:46.774Z,99914.64
2023-04-10T16:30:14.955Z,99917.63
2023-04-10T16:32:44.264Z,99917.31
2023-04-10T16:35:12.892Z,99920.89
2023-04-10T16:37:41.171Z,99921.64
2023-04-10T16:40:12.870Z,99924.66
2023-04-10T16:42:42.982Z,99924.23
2023-04-10T16:45:11.341Z,99927.27
2023-04-10T16:47:40.611Z,99928.20
2023-04-10T16:50:09.745Z,99931.80
2023-04-10T16:52:41.362Z,99926.80
2023-04-10T16:55:10.532Z,99928.30
2023-04-10T16:57:38.658Z,99925.90
2023-04-10T17:00:07.940Z,99928.41
2023-04-10T17:02:37.635Z,99924.96
2023-04-10T17:05:06.248Z,99928.56
2023-04-10T17:07:37.712Z,99926.94
2023-04-10T17:10:06.266Z,99928.40
2023-04-10T17:12:35.019Z,99929.11
2023-04-10T17:15:12.542Z,99928.65
2023-04-10T17:17:41.107Z,99927.91
2023-04-10T17:20:09.929Z,99935.02
2023-04-10T17:22:39.474Z,99933.51
2023-04-10T17:25:08.812Z,99934.23
2023-04-10T17:27:39.728Z,99935.84
2023-04-10T17:30:12.957Z,99937.81
2023-04-10T17:32:43.595Z,99938.55
2023-04-10T17:35:11.817Z,99938.92
2023-04-10T17:37:40.435Z,99939.98
2023-04-10T17:40:10.966Z,99940.52
2023-04-10T17:42:44.865Z,99937.63
2023-04-10T17:45:12.979Z,99943.27
2023-04-10T17:47:41.152Z,99945.79
2023-04-10T17:50:10.620Z,99948.14
2023-04-10T17:52:39.831Z,99950.86
2023-04-10T17:55:09.521Z,99950.45
2023-04-10T17:57:39.315Z,99951.72
2023-04-10T18:00:08.866Z,99947.20
2023-04-10T18:02:38.501Z,99945.78
2023-04-10T18:05:07.220Z,99948.23
2023-04-10T18:07:38.410Z,99948.94
2023-04-10T18:10:09.701Z,99949.33
2023-04-10T18:12:40.458Z,99953.61
2023-04-10T18:15:11.830Z,99951.95
2023-04-10T18:17:40.659Z,99949.55
2023-04-10T18:20:09.161Z,99952.62
2023-04-10T18:22:37.926Z,99952.11
2023-04-10T18:25:07.313Z,99950.52
2023-04-10T18:27:43.607Z,99952.19
2023-04-10T18:30:16.677Z,99953.37
2023-04-10T18:32:45.920Z,99952.40
2023-04-10T18:35:14.088Z,99954.33
2023-04-10T18:37:44.399Z,99953.23
2023-04-10T18:40:16.724Z,99951.91
2023-04-10T18:42:46.810Z,99947.48
2023-04-10T18:45:14.863Z,99952.02
2023-04-10T18:47:43.337Z,99951.89
2023-04-10T18:50:11.994Z,99953.66
2023-04-10T18:52:45.333Z,99951.13
2023-04-10T18:55:13.409Z,99951.77
2023-04-10T18:57:41.891Z,99952.93
2023-04-10T19:00:11.889Z,99954.84
2023-04-10T19:02:40.959Z,99955.50
2023-04-10T19:05:10.503Z,99956.12
2023-04-10T19:07:47.222Z,99957.41
2023-04-10T19:10:21.484Z,99955.52
2023-04-10T19:12:53.155Z,99960.02
2023-04-10T19:15:21.478Z,99959.14
2023-04-10T19:17:54.490Z,99957.00
2023-04-10T19:20:48.679Z,99959.75
2023-04-10T19:23:11.941Z,99955.98
2023-04-10T19:25:41.625Z,99957.92
2023-04-10T19:28:09.680Z,99958.48
2023-04-10T19:30:57.664Z,99957.26
2023-04-10T19:33:25.808Z,99953.85
2023-04-10T19:35:54.030Z,99953.42
2023-04-10T19:38:22.308Z,99952.02
2023-04-10T19:40:54.830Z,99948.67
2023-04-10T19:43:23.035Z,99944.23
2023-04-10T19:45:53.090Z,99941.89
2023-04-10T19:48:21.230Z,99944.98
2023-04-10T19:50:49.665Z,99948.58
2023-04-10T19:53:23.642Z,99952.48
2023-04-10T19:55:52.172Z,99951.70
2023-04-10T19:58:35.986Z,99951.15
2023-04-10T20:01:10.377Z,99948.14
2023-04-10T20:03:40.071Z,99945.84
2023-04-10T20:06:08.563Z,99947.96
2023-04-10T20:08:37.781Z,99943.84
2023-04-10T20:11:06.755Z,99940.51
2023-04-10T20:13:35.385Z,99942.85
2023-04-10T20:16:08.353Z,99944.08
2023-04-10T20:18:38.593Z,99941.23
2023-04-10T20:21:08.402Z,99936.18
2023-04-10T20:23:39.083Z,99936.58
2023-04-10T20:26:07.211Z,99934.89
2023-04-10T20:28:35.440Z,99930.58
2023-04-10T20:31:05.053Z,99930.30
2023-04-10T20:33:33.216Z,99926.69
2023-04-10T20:36:01.332Z,99927.55
2023-04-10T20:38:29.694Z,99926.48
2023-04-10T20:40:58.252Z,99928.00
2023-04-10T20:43:26.321Z,99930.11
2023-04-10T20:45:54.647Z,99927.70
2023-04-10T20:48:22.660Z,99931.06
2023-04-10T20:50:51.894Z,99930.86
2023-04-10T20:53:20.485Z,99933.50
2023-04-10T20:55:52.199Z,99930.59
2023-04-10T20:58:20.794Z,99930.66
2023-04-10T21:00:53.134Z,99928.80
2023-04-10T21:03:23.320Z,99929.23
2023-04-10T21:05:53.236Z,99925.13
2023-04-10T21:08:23.866Z,99920.67
2023-04-10T21:10:52.707Z,99919.34
2023-04-10T21:13:20.984Z,99919.55
2023-04-10T21:15:49.726Z,99915.91
2023-04-10T21:18:17.916Z,99916.63
2023-04-10T21:20:50.582Z,99918.86
2023-04-10T21:23:19.056Z,99917.12
2023-04-10T21:25:54.312Z,99917.65
2023-04-10T21:28:22.646Z,99915.36
2023-04-10T21:30:51.139Z,99915.56
2023-04-10T21:33:20.375Z,99918.46
2023-04-10T21:35:49.456Z,99921.86
2023-04-10T21:38:18.470Z,99924.71
2023-04-10T21:40:51.456Z,99924.36
2023-04-10T21:43:20.629Z,99922.48
2023-04-10T21:45:48.789Z,99922.18
2023-04-10T21:48:19.687Z,99922.42
2023-04-10T21:50:49.299Z,99922.02
2023-04-10T21:53:18.492Z,99919.25
2023-04-10T21:55:46.904Z,99917.16
2023-04-10T21:58:14.912Z,99913.54
2023-04-10T22:00:47.067Z,99912.03
2023-04-10T22:03:16.851Z,99911.60
2023-04-10T22:05:46.047Z,99909.98
2023-04-10T22:08:15.108Z,99909.17
2023-04-10T22:10:45.546Z,99904.31
2023-04-10T22:13:30.335Z,99910.26
2023-04-10T22:16:02.176Z,99905.43
2023-04-10T22:18:31.478Z,99903.52
2023-04-10T22:21:13.390Z,99899.49
2023-04-10T22:23:43.199Z,99897.23
2023-04-10T22:26:11.809Z,99897.23
2023-04-10T22:28:42.766Z,99896.91
2023-04-10T22:31:17.969Z,99894.68
2023-04-10T22:33:46.473Z,99894.16
2023-04-10T22:36:15.594Z,99891.77
2023-04-10T22:38:43.734Z,99889.21
2023-04-10T22:41:12.220Z,99890.48
2023-04-10T22:43:40.830Z,99889.77
2023-04-10T22:46:12.798Z,99889.48
2023-04-10T22:48:41.491Z,99885.54
2023-04-10T22:51:13.256Z,99884.42
2023-04-10T22:53:42.597Z,99884.71
2023-04-10T22:56:11.120Z,99881.34
2023-04-10T22:58:43.123Z,99881.49
2023-04-10T23:01:14.428Z,99879.26
2023-04-10T23:03:43.401Z,99874.35
2023-04-10T23:06:13.289Z,99872.68
2023-04-10T23:08:41.833Z,99870.52
2023-04-10T23:11:09.856Z,99866.58
2023-04-10T23:13:39.919Z,99866.49
2023-04-10T23:16:09.404Z,99864.71
2023-04-10T23:18:37.736Z,99862.86
2023-04-10T23:21:10.771Z,99860.31
2023-04-10T23:23:38.991Z,99858.97
2023-04-10T23:26:07.481Z,99856.18
2023-04-10T23:28:37.008Z,99853.24
2023-04-10T23:31:05.872Z,99852.08
2023-04-10T23:33:34.126Z,99854.37
2023-04-10T23:36:02.473Z,99849.93
2023-04-10T23:38:31.176Z,99847.09
2023-04-10T23:40:59.289Z,99847.37
2023-04-10T23:43:27.671Z,99840.67
2023-04-10T23:45:55.678Z,99838.19
2023-04-10T23:48:29.070Z,99833.55
2023-04-10T23:51:04.977Z,99830.98
2023-04-10T23:53:33.127Z,99830.29
2023-04-10T23:56:01.980Z,99830.16
2023-04-10T23:58:30.453Z,99824.31
